createdAt,value
2022-09-26T00:01:05.985Z,69
2022-09-26T00:16:06.024Z,64
2022-09-26T00:31:05.214Z,62
2022-09-26T00:46:05.635Z,65
2022-09-26T01:01:06.049Z,58
2022-09-26T01:16:05.945Z,56
2022-09-26T01:31:06.320Z,57
2022-09-26T01:46:05.390Z,56
2022-09-26T02:01:05.790Z,55
2022-09-26T02:16:05.139Z,50
2022-09-26T02:31:04.994Z,55
2022-09-26T02:46:06.527Z,57
2022-09-26T03:01:05.544Z,59
2022-09-26T03:16:06.107Z,63
2022-09-26T03:31:05.296Z,60
2022-09-26T03:46:05.555Z,67
2022-09-26T04:01:05.686Z,68
2022-09-26T04:16:05.930Z,73
2022-09-26T04:31:05.847Z,80
2022-09-26T04:46:06.258Z,80
2022-09-26T05:01:06.459Z,81
2022-09-26T05:16:05.489Z,81
2022-09-26T05:31:05.960Z,84
2022-09-26T05:46:05.420Z,96
2022-09-26T06:01:05.145Z,91
2022-09-26T06:16:06.185Z,86
2022-09-26T06:31:05.980Z,78
2022-09-26T06:46:05.838Z,79
2022-09-26T07:01:05.954Z,80
2022-09-26T07:16:05.704Z,84
2022-09-26T07:31:05.446Z,87
2022-09-26T07:46:06.158Z,76
2022-09-26T08:01:05.670Z,71
2022-09-26T08:16:05.751Z,65
2022-09-26T08:31:05.527Z,62
2022-09-26T08:46:05.243Z,56
2022-09-26T09:01:05.185Z,49
2022-09-26T09:16:05.500Z,50
2022-09-26T09:31:05.229Z,42
2022-09-26T09:46:05.730Z,41
2022-09-26T10:01:05.618Z,28
2022-09-26T10:16:05.723Z,27
2022-09-26T10:31:05.090Z,26
2022-09-26T10:46:06.064Z,33
2022-09-26T11:01:05.432Z,21
2022-09-26T11:16:05.235Z,17
2022-09-26T11:31:05.920Z,11
2022-09-26T11:46:05.018Z,11
2022-09-26T12:01:05.426Z,11
2022-09-26T12:16:05.670Z,13
2022-09-26T12:31:05.871Z,9
2022-09-26T12:46:05.900Z,7
2022-09-26T13:01:05.114Z,7
2022-09-26T13:16:05.894Z,6
2022-09-26T13:31:05.917Z,6
2022-09-26T13:46:05.652Z,6
2022-09-26T14:01:05.484Z,9
2022-09-26T14:16:05.080Z,11
2022-09-26T14:31:05.716Z,9
2022-09-26T14:46:05.903Z,17
2022-09-26T15:01:05.287Z,12
2022-09-26T15:16:04.819Z,11
2022-09-26T15:31:05.062Z,12
2022-09-26T15:46:10.259Z,12
2022-09-26T16:01:05.898Z,16
2022-09-26T16:16:04.920Z,16
2022-09-26T16:31:04.879Z,17
2022-09-26T16:46:05.245Z,16
2022-09-26T17:01:05.804Z,19
2022-09-26T17:16:05.993Z,23
2022-09-26T17:31:05.294Z,30
2022-09-26T17:46:05.413Z,51
2022-09-26T18:01:05.823Z,38
2022-09-26T18:16:05.829Z,30
2022-09-26T18:31:05.207Z,30
2022-09-26T18:46:05.685Z,65
2022-09-26T19:01:06.214Z,84
2022-09-26T19:16:05.193Z,80
2022-09-26T19:31:05.230Z,83
2022-09-26T19:46:05.999Z,63
2022-09-26T20:01:05.229Z,51
2022-09-26T20:16:04.831Z,60
2022-09-26T20:31:05.398Z,25
2022-09-26T20:46:05.841Z,29
2022-09-26T21:01:05.057Z,27
2022-09-26T21:16:05.590Z,34
2022-09-26T21:31:05.511Z,25
2022-09-26T21:46:05.885Z,33
2022-09-26T22:01:06.026Z,56
2022-09-26T22:16:05.864Z,59
2022-09-26T22:31:05.846Z,61
2022-09-26T22:46:05.699Z,57
2022-09-26T23:01:05.292Z,57
2022-09-26T23:16:05.850Z,58
2022-09-26T23:31:05.454Z,69
2022-09-26T23:46:05.641Z,68
